sensor_id;sensor_type;location;lat;lon;timestamp;temperature;humidity
4615;DHT22;2320;51.362;6.946;2023-08-20T00:00:58;19.10;99.90
4615;DHT22;2320;51.362;6.946;2023-08-20T00:03:24;19.20;99.90
4615;DHT22;2320;51.362;6.946;2023-08-20T00:05:50;19.00;99.90
4615;DHT22;2320;51.362;6.946;2023-08-20T00:08:16;19.00;99.90
4615;DHT22;2320;51.362;6.946;2023-08-20T00:10:41;19.10;99.90
4615;DHT22;2320;51.362;6.946;2023-08-20T00:13:06;19.00;99.90
4615;DHT22;2320;51.362;6.946;2023-08-20T00:15:32;19.00;99.90
4615;DHT22;2320;51.362;6.946;2023-08-20T00:17:58;18.90;99.90
4615;DHT22;2320;51.362;6.946;2023-08-20T00:20:24;18.80;99.90
4615;DHT22;2320;51.362;6.946;2023-08-20T00:22:50;18.70;99.90
4615;DHT22;2320;51.362;6.946;2023-08-20T00:25:16;18.80;99.90
4615;DHT22;2320;51.362;6.946;2023-08-20T00:27:42;18.70;99.90
4615;DHT22;2320;51.362;6.946;2023-08-20T00:30:08;18.70;99.90
4615;DHT22;2320;51.362;6.946;2023-08-20T00:32:34;18.60;99.90
4615;DHT22;2320;51.362;6.946;2023-08-20T00:34:59;18.60;99.90
4615;DHT22;2320;51.362;6.946;2023-08-20T00:37:25;18.70;99.90
4615;DHT22;2320;51.362;6.946;2023-08-20T00:39:50;18.60;99.90
4615;DHT22;2320;51.362;6.946;2023-08-20T00:42:16;18.50;99.90
4615;DHT22;2320;51.362;6.946;2023-08-20T00:44:42;18.50;99.90
4615;DHT22;2320;51.362;6.946;2023-08-20T00:47:09;18.60;99.90
4615;DHT22;2320;51.362;6.946;2023-08-20T00:49:35;18.80;99.90
4615;DHT22;2320;51.362;6.946;2023-08-20T00:52:01;18.80;99.90
4615;DHT22;2320;51.362;6.946;2023-08-20T00:54:27;18.70;99.90
4615;DHT22;2320;51.362;6.946;2023-08-20T00:56:53;18.60;99.90
4615;DHT22;2320;51.362;6.946;2023-08-20T00:59:18;18.70;99.90
4615;DHT22;2320;51.362;6.946;2023-08-20T01:01:44;18.50;99.90
4615;DHT22;2320;51.362;6.946;2023-08-20T01:04:10;18.50;99.90
4615;DHT22;2320;51.362;6.946;2023-08-20T01:06:53;18.40;99.90
4615;DHT22;2320;51.362;6.946;2023-08-20T01:12:04;18.50;99.90
4615;DHT22;2320;51.362;6.946;2023-08-20T01:14:31;18.40;99.90
4615;DHT22;2320;51.362;6.946;2023-08-20T01:16:57;18.60;99.90
4615;DHT22;2320;51.362;6.946;2023-08-20T01:19:22;18.60;99.90
4615;DHT22;2320;51.362;6.946;2023-08-20T01:24:39;18.50;99.90
4615;DHT22;2320;51.362;6.946;2023-08-20T01:27:19;18.50;99.90
4615;DHT22;2320;51.362;6.946;2023-08-20T01:29:49;18.60;99.90
4615;DHT22;2320;51.362;6.946;2023-08-20T01:32:14;18.70;99.90
4615;DHT22;2320;51.362;6.946;2023-08-20T01:34:40;18.70;99.90
4615;DHT22;2320;51.362;6.946;2023-08-20T01:37:06;18.80;99.90
4615;DHT22;2320;51.362;6.946;2023-08-20T01:39:31;18.80;99.90
4615;DHT22;2320;51.362;6.946;2023-08-20T01:41:57;18.80;99.90
4615;DHT22;2320;51.362;6.946;2023-08-20T01:44:22;18.80;99.90
4615;DHT22;2320;51.362;6.946;2023-08-20T01:46:48;18.90;99.90
4615;DHT22;2320;51.362;6.946;2023-08-20T01:49:13;18.60;99.90
4615;DHT22;2320;51.362;6.946;2023-08-20T01:51:39;18.70;99.90
4615;DHT22;2320;51.362;6.946;2023-08-20T01:54:04;18.80;99.90
4615;DHT22;2320;51.362;6.946;2023-08-20T01:56:30;18.80;99.90
4615;DHT22;2320;51.362;6.946;2023-08-20T01:58:55;18.60;99.90
4615;DHT22;2320;51.362;6.946;2023-08-20T02:01:21;18.60;99.90
4615;DHT22;2320;51.362;6.946;2023-08-20T02:03:46;18.70;99.90
4615;DHT22;2320;51.362;6.946;2023-08-20T02:06:12;18.70;99.90
4615;DHT22;2320;51.362;6.946;2023-08-20T02:08:37;18.90;99.90
4615;DHT22;2320;51.362;6.946;2023-08-20T02:11:03;18.80;99.90
4615;DHT22;2320;51.362;6.946;2023-08-20T02:13:29;18.80;99.90
4615;DHT22;2320;51.362;6.946;2023-08-20T02:16:00;18.80;99.90
4615;DHT22;2320;51.362;6.946;2023-08-20T02:18:26;18.70;99.90
4615;DHT22;2320;51.362;6.946;2023-08-20T02:20:52;18.50;99.90
4615;DHT22;2320;51.362;6.946;2023-08-20T02:23:17;18.40;99.90
4615;DHT22;2320;51.362;6.946;2023-08-20T02:25:43;18.40;99.90
4615;DHT22;2320;51.362;6.946;2023-08-20T02:28:09;18.40;99.90
4615;DHT22;2320;51.362;6.946;2023-08-20T02:30:39;18.40;99.90
4615;DHT22;2320;51.362;6.946;2023-08-20T02:33:04;18.40;99.90
4615;DHT22;2320;51.362;6.946;2023-08-20T02:35:30;18.40;99.90
4615;DHT22;2320;51.362;6.946;2023-08-20T02:37:55;18.50;99.90
4615;DHT22;2320;51.362;6.946;2023-08-20T02:40:21;18.50;99.90
4615;DHT22;2320;51.362;6.946;2023-08-20T02:42:46;18.60;99.90
4615;DHT22;2320;51.362;6.946;2023-08-20T02:45:12;18.60;99.90
4615;DHT22;2320;51.362;6.946;2023-08-20T02:47:37;18.60;99.90
4615;DHT22;2320;51.362;6.946;2023-08-20T02:50:03;18.50;99.90
4615;DHT22;2320;51.362;6.946;2023-08-20T02:52:29;18.70;99.90
4615;DHT22;2320;51.362;6.946;2023-08-20T02:54:55;18.90;99.90
4615;DHT22;2320;51.362;6.946;2023-08-20T02:57:20;18.80;99.90
4615;DHT22;2320;51.362;6.946;2023-08-20T02:59:46;18.80;99.90
4615;DHT22;2320;51.362;6.946;2023-08-20T03:02:12;18.70;99.90
4615;DHT22;2320;51.362;6.946;2023-08-20T03:04:37;18.70;99.90
4615;DHT22;2320;51.362;6.946;2023-08-20T03:07:03;18.80;99.90
4615;DHT22;2320;51.362;6.946;2023-08-20T03:09:28;19.00;99.90
4615;DHT22;2320;51.362;6.946;2023-08-20T03:11:54;18.90;99.90
4615;DHT22;2320;51.362;6.946;2023-08-20T03:14:19;18.80;99.90
4615;DHT22;2320;51.362;6.946;2023-08-20T03:16:45;18.60;99.90
4615;DHT22;2320;51.362;6.946;2023-08-20T03:19:10;18.60;99.90
4615;DHT22;2320;51.362;6.946;2023-08-20T03:21:36;18.70;99.90
4615;DHT22;2320;51.362;6.946;2023-08-20T03:24:01;18.70;99.90
4615;DHT22;2320;51.362;6.946;2023-08-20T03:26:27;18.80;99.90
4615;DHT22;2320;51.362;6.946;2023-08-20T03:28:52;18.70;99.90
4615;DHT22;2320;51.362;6.946;2023-08-20T03:31:18;18.70;99.90
4615;DHT22;2320;51.362;6.946;2023-08-20T03:33:43;18.70;99.90
4615;DHT22;2320;51.362;6.946;2023-08-20T03:36:09;18.70;99.90
4615;DHT22;2320;51.362;6.946;2023-08-20T03:38:34;18.70;99.90
4615;DHT22;2320;51.362;6.946;2023-08-20T03:41:00;18.60;99.90
4615;DHT22;2320;51.362;6.946;2023-08-20T03:43:25;18.60;99.90
4615;DHT22;2320;51.362;6.946;2023-08-20T03:45:51;18.60;99.90
4615;DHT22;2320;51.362;6.946;2023-08-20T03:48:17;18.60;99.90
4615;DHT22;2320;51.362;6.946;2023-08-20T03:50:43;18.50;99.90
4615;DHT22;2320;51.362;6.946;2023-08-20T03:53:09;18.60;99.90
4615;DHT22;2320;51.362;6.946;2023-08-20T03:55:35;18.70;99.90
4615;DHT22;2320;51.362;6.946;2023-08-20T03:58:00;18.70;99.90
4615;DHT22;2320;51.362;6.946;2023-08-20T04:00:26;18.80;99.90
4615;DHT22;2320;51.362;6.946;2023-08-20T04:02:51;18.80;99.90
4615;DHT22;2320;51.362;6.946;2023-08-20T04:05:17;18.80;99.90
4615;DHT22;2320;51.362;6.946;2023-08-20T04:07:42;18.80;99.90
4615;DHT22;2320;51.362;6.946;2023-08-20T04:10:08;18.80;99.90
4615;DHT22;2320;51.362;6.946;2023-08-20T04:12:33;18.70;99.90
4615;DHT22;2320;51.362;6.946;2023-08-20T04:14:59;18.60;99.90
4615;DHT22;2320;51.362;6.946;2023-08-20T04:17:24;18.50;99.90
4615;DHT22;2320;51.362;6.946;2023-08-20T04:19:50;18.40;99.90
4615;DHT22;2320;51.362;6.946;2023-08-20T04:22:15;18.50;99.90
4615;DHT22;2320;51.362;6.946;2023-08-20T04:24:41;18.40;99.90
4615;DHT22;2320;51.362;6.946;2023-08-20T04:27:06;18.40;99.90
4615;DHT22;2320;51.362;6.946;2023-08-20T04:29:32;18.40;99.90
4615;DHT22;2320;51.362;6.946;2023-08-20T04:31:57;18.20;99.90
4615;DHT22;2320;51.362;6.946;2023-08-20T04:34:23;18.10;99.90
4615;DHT22;2320;51.362;6.946;2023-08-20T04:36:48;18.30;99.90
4615;DHT22;2320;51.362;6.946;2023-08-20T04:39:14;18.20;99.90
4615;DHT22;2320;51.362;6.946;2023-08-20T04:41:39;18.10;99.90
4615;DHT22;2320;51.362;6.946;2023-08-20T04:44:05;18.20;99.90
4615;DHT22;2320;51.362;6.946;2023-08-20T04:46:30;18.30;99.90
4615;DHT22;2320;51.362;6.946;2023-08-20T04:48:56;18.30;99.90
4615;DHT22;2320;51.362;6.946;2023-08-20T04:51:21;18.40;99.90
4615;DHT22;2320;51.362;6.946;2023-08-20T04:53:47;18.30;99.90
4615;DHT22;2320;51.362;6.946;2023-08-20T04:56:12;18.20;99.90
4615;DHT22;2320;51.362;6.946;2023-08-20T04:58:38;18.30;99.90
4615;DHT22;2320;51.362;6.946;2023-08-20T05:01:03;18.50;99.90
4615;DHT22;2320;51.362;6.946;2023-08-20T05:03:31;18.40;99.90
4615;DHT22;2320;51.362;6.946;2023-08-20T05:05:56;18.30;99.90
4615;DHT22;2320;51.362;6.946;2023-08-20T05:08:22;18.20;99.90
4615;DHT22;2320;51.362;6.946;2023-08-20T05:10:49;18.30;99.90
4615;DHT22;2320;51.362;6.946;2023-08-20T05:13:14;18.30;99.90
4615;DHT22;2320;51.362;6.946;2023-08-20T05:15:40;18.40;99.90
4615;DHT22;2320;51.362;6.946;2023-08-20T05:18:05;18.60;99.90
4615;DHT22;2320;51.362;6.946;2023-08-20T05:20:31;18.60;99.90
4615;DHT22;2320;51.362;6.946;2023-08-20T05:22:56;18.70;99.90
4615;DHT22;2320;51.362;6.946;2023-08-20T05:25:22;18.90;99.90
4615;DHT22;2320;51.362;6.946;2023-08-20T05:27:47;18.90;99.90
4615;DHT22;2320;51.362;6.946;2023-08-20T05:30:13;18.90;99.90
4615;DHT22;2320;51.362;6.946;2023-08-20T05:32:38;19.10;99.90
4615;DHT22;2320;51.362;6.946;2023-08-20T05:35:04;19.10;99.90
4615;DHT22;2320;51.362;6.946;2023-08-20T05:37:30;19.20;99.90
4615;DHT22;2320;51.362;6.946;2023-08-20T05:39:55;19.40;99.90
4615;DHT22;2320;51.362;6.946;2023-08-20T05:42:21;19.60;99.90
4615;DHT22;2320;51.362;6.946;2023-08-20T05:44:46;19.70;99.90
4615;DHT22;2320;51.362;6.946;2023-08-20T05:47:12;19.80;99.90
4615;DHT22;2320;51.362;6.946;2023-08-20T05:49:37;20.10;99.90
4615;DHT22;2320;51.362;6.946;2023-08-20T05:52:03;20.90;99.90
4615;DHT22;2320;51.362;6.946;2023-08-20T05:54:28;21.80;99.90
4615;DHT22;2320;51.362;6.946;2023-08-20T05:56:54;22.40;99.90
4615;DHT22;2320;51.362;6.946;2023-08-20T05:59:19;23.00;99.90
4615;DHT22;2320;51.362;6.946;2023-08-20T06:01:45;23.80;99.90
4615;DHT22;2320;51.362;6.946;2023-08-20T06:04:10;23.90;99.90
4615;DHT22;2320;51.362;6.946;2023-08-20T06:06:36;23.40;99.90
4615;DHT22;2320;51.362;6.946;2023-08-20T06:09:01;22.60;99.90
4615;DHT22;2320;51.362;6.946;2023-08-20T06:11:27;22.70;99.90
4615;DHT22;2320;51.362;6.946;2023-08-20T06:13:52;23.50;99.90
4615;DHT22;2320;51.362;6.946;2023-08-20T06:16:18;24.40;99.90
4615;DHT22;2320;51.362;6.946;2023-08-20T06:18:43;24.90;99.90
4615;DHT22;2320;51.362;6.946;2023-08-20T06:21:09;25.90;99.90
4615;DHT22;2320;51.362;6.946;2023-08-20T06:23:34;26.20;99.90
4615;DHT22;2320;51.362;6.946;2023-08-20T06:25:59;27.70;99.90
4615;DHT22;2320;51.362;6.946;2023-08-20T06:28:25;28.70;99.90
4615;DHT22;2320;51.362;6.946;2023-08-20T06:30:50;29.80;99.90
4615;DHT22;2320;51.362;6.946;2023-08-20T06:33:16;31.00;99.90
4615;DHT22;2320;51.362;6.946;2023-08-20T06:35:41;32.20;99.90
4615;DHT22;2320;51.362;6.946;2023-08-20T06:38:07;32.80;99.90
4615;DHT22;2320;51.362;6.946;2023-08-20T06:40:33;33.00;99.90
4615;DHT22;2320;51.362;6.946;2023-08-20T06:42:58;32.70;99.90
4615;DHT22;2320;51.362;6.946;2023-08-20T06:45:24;33.00;99.90
4615;DHT22;2320;51.362;6.946;2023-08-20T06:47:49;33.00;99.90
4615;DHT22;2320;51.362;6.946;2023-08-20T06:50:15;33.00;99.90
4615;DHT22;2320;51.362;6.946;2023-08-20T06:52:40;33.10;99.90
4615;DHT22;2320;51.362;6.946;2023-08-20T06:55:05;33.30;99.90
4615;DHT22;2320;51.362;6.946;2023-08-20T06:57:31;33.60;99.90
4615;DHT22;2320;51.362;6.946;2023-08-20T06:59:57;34.00;99.90
4615;DHT22;2320;51.362;6.946;2023-08-20T07:02:22;34.50;99.90
4615;DHT22;2320;51.362;6.946;2023-08-20T07:04:48;34.90;99.90
4615;DHT22;2320;51.362;6.946;2023-08-20T07:07:13;35.20;99.90
4615;DHT22;2320;51.362;6.946;2023-08-20T07:09:40;34.70;99.90
4615;DHT22;2320;51.362;6.946;2023-08-20T07:12:05;34.40;99.90
4615;DHT22;2320;51.362;6.946;2023-08-20T07:14:31;34.50;99.90
4615;DHT22;2320;51.362;6.946;2023-08-20T07:16:56;35.50;99.90
4615;DHT22;2320;51.362;6.946;2023-08-20T07:19:22;36.00;99.90
4615;DHT22;2320;51.362;6.946;2023-08-20T07:21:47;36.00;99.90
4615;DHT22;2320;51.362;6.946;2023-08-20T07:24:13;36.10;99.90
4615;DHT22;2320;51.362;6.946;2023-08-20T07:26:38;36.40;99.90
4615;DHT22;2320;51.362;6.946;2023-08-20T07:29:04;36.30;99.90
4615;DHT22;2320;51.362;6.946;2023-08-20T07:31:30;36.80;99.90
4615;DHT22;2320;51.362;6.946;2023-08-20T07:33:57;36.90;99.90
4615;DHT22;2320;51.362;6.946;2023-08-20T07:36:23;37.10;99.90
4615;DHT22;2320;51.362;6.946;2023-08-20T07:38:49;37.70;99.90
4615;DHT22;2320;51.362;6.946;2023-08-20T07:41:15;37.20;99.90
4615;DHT22;2320;51.362;6.946;2023-08-20T07:43:40;37.10;99.90
4615;DHT22;2320;51.362;6.946;2023-08-20T07:46:07;36.70;99.90
4615;DHT22;2320;51.362;6.946;2023-08-20T07:48:33;37.00;99.90
4615;DHT22;2320;51.362;6.946;2023-08-20T07:50:58;37.20;99.90
4615;DHT22;2320;51.362;6.946;2023-08-20T07:53:24;37.90;99.90
4615;DHT22;2320;51.362;6.946;2023-08-20T07:55:49;38.30;99.90
4615;DHT22;2320;51.362;6.946;2023-08-20T07:58:15;39.00;99.90
4615;DHT22;2320;51.362;6.946;2023-08-20T08:00:40;39.00;99.90
4615;DHT22;2320;51.362;6.946;2023-08-20T08:03:06;39.50;99.90
4615;DHT22;2320;51.362;6.946;2023-08-20T08:05:31;39.80;99.90
4615;DHT22;2320;51.362;6.946;2023-08-20T08:07:57;40.00;99.90
4615;DHT22;2320;51.362;6.946;2023-08-20T08:10:22;40.50;99.90
4615;DHT22;2320;51.362;6.946;2023-08-20T08:12:48;40.90;99.90
4615;DHT22;2320;51.362;6.946;2023-08-20T08:15:13;41.30;97.50
4615;DHT22;2320;51.362;6.946;2023-08-20T08:17:39;40.80;96.50
4615;DHT22;2320;51.362;6.946;2023-08-20T08:20:04;41.20;96.90
4615;DHT22;2320;51.362;6.946;2023-08-20T08:22:30;41.50;95.10
4615;DHT22;2320;51.362;6.946;2023-08-20T08:24:55;41.50;93.20
4615;DHT22;2320;51.362;6.946;2023-08-20T08:27:21;41.50;93.90
4615;DHT22;2320;51.362;6.946;2023-08-20T08:29:46;40.70;93.10
4615;DHT22;2320;51.362;6.946;2023-08-20T08:32:12;40.20;94.20
4615;DHT22;2320;51.362;6.946;2023-08-20T08:34:37;40.60;93.20
4615;DHT22;2320;51.362;6.946;2023-08-20T08:37:03;40.90;89.20
4615;DHT22;2320;51.362;6.946;2023-08-20T08:39:28;40.70;90.50
4615;DHT22;2320;51.362;6.946;2023-08-20T08:41:55;40.40;91.00
4615;DHT22;2320;51.362;6.946;2023-08-20T08:44:24;40.40;91.20
4615;DHT22;2320;51.362;6.946;2023-08-20T08:46:50;40.60;90.30
4615;DHT22;2320;51.362;6.946;2023-08-20T08:49:16;40.70;91.00
4615;DHT22;2320;51.362;6.946;2023-08-20T08:51:42;41.00;90.40
4615;DHT22;2320;51.362;6.946;2023-08-20T08:54:07;40.60;90.20
4615;DHT22;2320;51.362;6.946;2023-08-20T08:56:34;40.80;88.90
4615;DHT22;2320;51.362;6.946;2023-08-20T08:58:59;40.10;86.70
4615;DHT22;2320;51.362;6.946;2023-08-20T09:01:25;40.40;89.20
4615;DHT22;2320;51.362;6.946;2023-08-20T09:03:51;40.20;86.40
4615;DHT22;2320;51.362;6.946;2023-08-20T09:06:16;40.50;86.10
4615;DHT22;2320;51.362;6.946;2023-08-20T09:08:42;39.80;86.10
4615;DHT22;2320;51.362;6.946;2023-08-20T09:11:07;40.90;89.50
4615;DHT22;2320;51.362;6.946;2023-08-20T09:13:34;41.50;87.00
4615;DHT22;2320;51.362;6.946;2023-08-20T09:16:02;40.70;85.00
4615;DHT22;2320;51.362;6.946;2023-08-20T09:18:28;39.70;87.90
4615;DHT22;2320;51.362;6.946;2023-08-20T09:20:54;39.70;87.90
4615;DHT22;2320;51.362;6.946;2023-08-20T09:23:19;40.10;90.00
4615;DHT22;2320;51.362;6.946;2023-08-20T09:25:45;40.20;87.20
4615;DHT22;2320;51.362;6.946;2023-08-20T09:28:10;39.30;89.70
4615;DHT22;2320;51.362;6.946;2023-08-20T09:30:36;39.10;90.90
4615;DHT22;2320;51.362;6.946;2023-08-20T09:33:06;39.50;91.10
4615;DHT22;2320;51.362;6.946;2023-08-20T09:35:32;40.00;90.50
4615;DHT22;2320;51.362;6.946;2023-08-20T09:38:01;40.80;90.50
4615;DHT22;2320;51.362;6.946;2023-08-20T09:40:26;41.40;88.70
4615;DHT22;2320;51.362;6.946;2023-08-20T09:42:52;42.00;86.00
4615;DHT22;2320;51.362;6.946;2023-08-20T09:45:19;42.20;84.40
4615;DHT22;2320;51.362;6.946;2023-08-20T09:47:45;42.10;84.60
4615;DHT22;2320;51.362;6.946;2023-08-20T09:50:13;41.40;82.70
4615;DHT22;2320;51.362;6.946;2023-08-20T09:52:39;40.50;84.70
4615;DHT22;2320;51.362;6.946;2023-08-20T10:00:00;36.80;91.50
4615;DHT22;2320;51.362;6.946;2023-08-20T10:02:26;36.70;92.50
4615;DHT22;2320;51.362;6.946;2023-08-20T10:04:52;36.90;93.00
4615;DHT22;2320;51.362;6.946;2023-08-20T10:07:17;37.40;92.40
4615;DHT22;2320;51.362;6.946;2023-08-20T10:09:43;37.90;91.90
4615;DHT22;2320;51.362;6.946;2023-08-20T10:12:14;37.90;90.80
4615;DHT22;2320;51.362;6.946;2023-08-20T10:14:40;38.00;91.40
4615;DHT22;2320;51.362;6.946;2023-08-20T10:17:06;37.60;90.60
4615;DHT22;2320;51.362;6.946;2023-08-20T10:19:32;37.00;91.30
4615;DHT22;2320;51.362;6.946;2023-08-20T10:21:58;36.00;91.60
4615;DHT22;2320;51.362;6.946;2023-08-20T10:24:23;35.20;93.50
4615;DHT22;2320;51.362;6.946;2023-08-20T10:26:49;35.10;94.00
4615;DHT22;2320;51.362;6.946;2023-08-20T10:29:39;36.20;94.30
4615;DHT22;2320;51.362;6.946;2023-08-20T10:32:08;36.40;93.40
4615;DHT22;2320;51.362;6.946;2023-08-20T10:34:35;35.70;94.00
4615;DHT22;2320;51.362;6.946;2023-08-20T10:37:01;35.20;94.80
4615;DHT22;2320;51.362;6.946;2023-08-20T10:39:28;34.10;96.20
4615;DHT22;2320;51.362;6.946;2023-08-20T10:42:09;33.40;98.40
4615;DHT22;2320;51.362;6.946;2023-08-20T10:50:09;33.70;99.90
4615;DHT22;2320;51.362;6.946;2023-08-20T10:52:46;34.40;99.90
4615;DHT22;2320;51.362;6.946;2023-08-20T10:55:13;35.60;99.80
4615;DHT22;2320;51.362;6.946;2023-08-20T10:57:38;36.30;97.70
4615;DHT22;2320;51.362;6.946;2023-08-20T11:00:04;36.50;96.60
4615;DHT22;2320;51.362;6.946;2023-08-20T11:02:40;36.20;96.30
4615;DHT22;2320;51.362;6.946;2023-08-20T11:05:15;35.20;96.30
4615;DHT22;2320;51.362;6.946;2023-08-20T11:07:41;34.10;98.40
4615;DHT22;2320;51.362;6.946;2023-08-20T11:10:07;33.40;99.90
4615;DHT22;2320;51.362;6.946;2023-08-20T11:12:33;33.50;99.90
4615;DHT22;2320;51.362;6.946;2023-08-20T11:15:01;33.70;99.90
4615;DHT22;2320;51.362;6.946;2023-08-20T11:17:28;34.20;99.90
4615;DHT22;2320;51.362;6.946;2023-08-20T11:19:53;34.60;99.90
4615;DHT22;2320;51.362;6.946;2023-08-20T11:22:19;34.70;99.90
4615;DHT22;2320;51.362;6.946;2023-08-20T11:24:45;34.10;99.90
4615;DHT22;2320;51.362;6.946;2023-08-20T11:27:10;33.50;99.90
4615;DHT22;2320;51.362;6.946;2023-08-20T11:29:36;33.00;99.90
4615;DHT22;2320;51.362;6.946;2023-08-20T11:32:01;32.70;99.90
4615;DHT22;2320;51.362;6.946;2023-08-20T11:34:28;32.50;99.90
4615;DHT22;2320;51.362;6.946;2023-08-20T11:36:54;32.40;99.90
4615;DHT22;2320;51.362;6.946;2023-08-20T11:39:19;32.50;99.90
4615;DHT22;2320;51.362;6.946;2023-08-20T11:41:45;32.00;99.90
4615;DHT22;2320;51.362;6.946;2023-08-20T11:44:18;31.80;99.90
4615;DHT22;2320;51.362;6.946;2023-08-20T11:46:44;31.60;99.90
4615;DHT22;2320;51.362;6.946;2023-08-20T11:49:10;31.30;99.90
4615;DHT22;2320;51.362;6.946;2023-08-20T11:51:36;31.30;99.90
4615;DHT22;2320;51.362;6.946;2023-08-20T11:54:05;31.20;99.90
4615;DHT22;2320;51.362;6.946;2023-08-20T11:56:32;31.20;99.90
4615;DHT22;2320;51.362;6.946;2023-08-20T11:59:01;31.20;99.90
4615;DHT22;2320;51.362;6.946;2023-08-20T12:01:33;31.20;99.90
4615;DHT22;2320;51.362;6.946;2023-08-20T12:04:08;31.10;99.90
4615;DHT22;2320;51.362;6.946;2023-08-20T12:06:35;31.00;99.90
4615;DHT22;2320;51.362;6.946;2023-08-20T12:09:01;30.90;99.90
4615;DHT22;2320;51.362;6.946;2023-08-20T12:11:27;30.80;99.90
4615;DHT22;2320;51.362;6.946;2023-08-20T12:13:52;30.90;99.90
4615;DHT22;2320;51.362;6.946;2023-08-20T12:16:18;30.90;99.90
4615;DHT22;2320;51.362;6.946;2023-08-20T12:18:45;30.80;99.90
4615;DHT22;2320;51.362;6.946;2023-08-20T12:21:11;30.40;99.90
4615;DHT22;2320;51.362;6.946;2023-08-20T12:23:37;30.40;99.90
4615;DHT22;2320;51.362;6.946;2023-08-20T12:26:02;30.40;99.90
4615;DHT22;2320;51.362;6.946;2023-08-20T12:28:28;30.40;99.90
4615;DHT22;2320;51.362;6.946;2023-08-20T12:30:53;30.30;99.90
4615;DHT22;2320;51.362;6.946;2023-08-20T12:33:19;30.20;99.90
4615;DHT22;2320;51.362;6.946;2023-08-20T12:35:46;30.10;99.90
4615;DHT22;2320;51.362;6.946;2023-08-20T12:38:11;30.10;99.90
4615;DHT22;2320;51.362;6.946;2023-08-20T12:40:37;30.10;99.90
4615;DHT22;2320;51.362;6.946;2023-08-20T12:43:02;30.10;99.90
4615;DHT22;2320;51.362;6.946;2023-08-20T12:45:28;30.10;99.90
4615;DHT22;2320;51.362;6.946;2023-08-20T12:47:54;30.10;99.90
4615;DHT22;2320;51.362;6.946;2023-08-20T12:50:19;30.00;99.90
4615;DHT22;2320;51.362;6.946;2023-08-20T12:52:45;29.70;99.90
4615;DHT22;2320;51.362;6.946;2023-08-20T12:55:12;29.70;99.90
4615;DHT22;2320;51.362;6.946;2023-08-20T12:57:51;29.70;99.90
4615;DHT22;2320;51.362;6.946;2023-08-20T13:00:16;29.70;99.90
4615;DHT22;2320;51.362;6.946;2023-08-20T13:02:42;29.70;99.90
4615;DHT22;2320;51.362;6.946;2023-08-20T13:05:08;29.60;99.90
4615;DHT22;2320;51.362;6.946;2023-08-20T13:07:34;29.50;99.90
4615;DHT22;2320;51.362;6.946;2023-08-20T13:10:00;29.50;99.90
4615;DHT22;2320;51.362;6.946;2023-08-20T13:12:26;29.40;99.90
4615;DHT22;2320;51.362;6.946;2023-08-20T13:14:52;29.40;99.90
4615;DHT22;2320;51.362;6.946;2023-08-20T13:17:18;29.50;99.90
4615;DHT22;2320;51.362;6.946;2023-08-20T13:19:43;29.50;99.90
4615;DHT22;2320;51.362;6.946;2023-08-20T13:22:09;29.70;99.90
4615;DHT22;2320;51.362;6.946;2023-08-20T13:24:34;29.70;99.90
4615;DHT22;2320;51.362;6.946;2023-08-20T13:27:00;30.00;99.90
4615;DHT22;2320;51.362;6.946;2023-08-20T13:29:25;30.10;99.90
4615;DHT22;2320;51.362;6.946;2023-08-20T13:31:51;30.20;99.90
4615;DHT22;2320;51.362;6.946;2023-08-20T13:34:16;30.30;99.90
4615;DHT22;2320;51.362;6.946;2023-08-20T13:36:42;30.40;99.90
4615;DHT22;2320;51.362;6.946;2023-08-20T13:39:08;30.20;99.90
4615;DHT22;2320;51.362;6.946;2023-08-20T13:41:33;30.20;99.90
4615;DHT22;2320;51.362;6.946;2023-08-20T13:43:59;30.10;99.90
4615;DHT22;2320;51.362;6.946;2023-08-20T13:46:24;29.90;99.90
4615;DHT22;2320;51.362;6.946;2023-08-20T13:48:50;30.00;99.90
4615;DHT22;2320;51.362;6.946;2023-08-20T13:51:15;30.00;99.90
4615;DHT22;2320;51.362;6.946;2023-08-20T13:53:41;29.70;99.90
4615;DHT22;2320;51.362;6.946;2023-08-20T13:56:06;29.50;99.90
4615;DHT22;2320;51.362;6.946;2023-08-20T13:58:32;29.50;99.90
4615;DHT22;2320;51.362;6.946;2023-08-20T14:00:58;29.60;99.90
4615;DHT22;2320;51.362;6.946;2023-08-20T14:03:23;29.60;99.90
4615;DHT22;2320;51.362;6.946;2023-08-20T14:05:49;29.70;99.90
4615;DHT22;2320;51.362;6.946;2023-08-20T14:08:14;29.60;99.90
4615;DHT22;2320;51.362;6.946;2023-08-20T14:10:40;29.50;99.90
4615;DHT22;2320;51.362;6.946;2023-08-20T14:13:05;29.30;99.90
4615;DHT22;2320;51.362;6.946;2023-08-20T14:15:31;29.20;99.90
4615;DHT22;2320;51.362;6.946;2023-08-20T14:17:56;29.30;99.90
4615;DHT22;2320;51.362;6.946;2023-08-20T14:20:22;29.30;99.90
4615;DHT22;2320;51.362;6.946;2023-08-20T14:22:48;29.40;99.90
4615;DHT22;2320;51.362;6.946;2023-08-20T14:25:13;29.30;99.90
4615;DHT22;2320;51.362;6.946;2023-08-20T14:27:39;29.50;99.90
4615;DHT22;2320;51.362;6.946;2023-08-20T14:30:05;29.70;99.90
4615;DHT22;2320;51.362;6.946;2023-08-20T14:32:31;29.50;99.90
4615;DHT22;2320;51.362;6.946;2023-08-20T14:34:56;29.70;99.90
4615;DHT22;2320;51.362;6.946;2023-08-20T14:37:22;29.70;99.90
4615;DHT22;2320;51.362;6.946;2023-08-20T14:39:49;29.60;99.90
4615;DHT22;2320;51.362;6.946;2023-08-20T14:42:14;29.60;99.90
4615;DHT22;2320;51.362;6.946;2023-08-20T14:44:40;29.60;99.90
4615;DHT22;2320;51.362;6.946;2023-08-20T14:47:05;29.40;99.90
4615;DHT22;2320;51.362;6.946;2023-08-20T14:49:31;29.50;99.90
4615;DHT22;2320;51.362;6.946;2023-08-20T14:51:56;29.60;99.90
4615;DHT22;2320;51.362;6.946;2023-08-20T14:54:22;29.60;99.90
4615;DHT22;2320;51.362;6.946;2023-08-20T14:56:48;29.50;99.90
4615;DHT22;2320;51.362;6.946;2023-08-20T14:59:13;29.60;99.90
4615;DHT22;2320;51.362;6.946;2023-08-20T15:01:39;29.70;99.90
4615;DHT22;2320;51.362;6.946;2023-08-20T15:04:04;29.60;99.90
4615;DHT22;2320;51.362;6.946;2023-08-20T15:06:30;29.60;99.90
4615;DHT22;2320;51.362;6.946;2023-08-20T15:08:55;29.60;99.90
4615;DHT22;2320;51.362;6.946;2023-08-20T15:11:21;29.40;99.90
4615;DHT22;2320;51.362;6.946;2023-08-20T15:13:46;29.50;99.90
4615;DHT22;2320;51.362;6.946;2023-08-20T15:16:12;29.50;99.90
4615;DHT22;2320;51.362;6.946;2023-08-20T15:18:37;29.50;99.90
4615;DHT22;2320;51.362;6.946;2023-08-20T15:21:03;29.70;99.90
4615;DHT22;2320;51.362;6.946;2023-08-20T15:23:28;29.70;99.90
4615;DHT22;2320;51.362;6.946;2023-08-20T15:25:55;29.60;99.90
4615;DHT22;2320;51.362;6.946;2023-08-20T15:28:21;29.60;99.90
4615;DHT22;2320;51.362;6.946;2023-08-20T15:30:48;29.60;99.90
4615;DHT22;2320;51.362;6.946;2023-08-20T15:33:13;29.60;99.90
4615;DHT22;2320;51.362;6.946;2023-08-20T15:35:39;29.70;99.90
4615;DHT22;2320;51.362;6.946;2023-08-20T15:38:05;29.60;99.90
4615;DHT22;2320;51.362;6.946;2023-08-20T15:40:31;29.30;99.90
4615;DHT22;2320;51.362;6.946;2023-08-20T15:42:57;29.30;99.90
4615;DHT22;2320;51.362;6.946;2023-08-20T15:45:22;29.10;99.90
4615;DHT22;2320;51.362;6.946;2023-08-20T15:47:48;29.20;99.90
4615;DHT22;2320;51.362;6.946;2023-08-20T15:50:13;29.30;99.90
4615;DHT22;2320;51.362;6.946;2023-08-20T15:52:39;29.30;99.90
4615;DHT22;2320;51.362;6.946;2023-08-20T15:55:05;29.30;99.90
4615;DHT22;2320;51.362;6.946;2023-08-20T15:57:30;29.30;99.90
4615;DHT22;2320;51.362;6.946;2023-08-20T15:59:56;29.10;99.90
4615;DHT22;2320;51.362;6.946;2023-08-20T16:02:21;28.90;99.90
4615;DHT22;2320;51.362;6.946;2023-08-20T16:04:47;28.80;99.90
4615;DHT22;2320;51.362;6.946;2023-08-20T16:07:12;28.70;99.90
4615;DHT22;2320;51.362;6.946;2023-08-20T16:09:38;28.80;99.90